Time;durP1;ratioP1;P1;durP2;ratioP2;P2;SDS_P1;SDS_P2;PMS_P1;PMS_P2;Temp;Humidity;BMP_temperature;BMP_pressure;BME280_temperature;BME280_humidity;BME280_pressure;Samples;Min_cycle;Max_cycle;Signal;HPM_P1;HPM_P2
2021/04/28 00:01:50;;;;;;;6.97;6.27;;;6.80;67.00;;;;;;5019931;28;20951;-79
2021/04/28 00:04:16;;;;;;;6.17;5.53;;;6.80;67.90;;;;;;5018722;28;20414;-80
2021/04/28 00:06:45;;;;;;;6.50;5.30;;;6.80;66.80;;;;;;5039423;28;20399;-79
2021/04/28 00:09:11;;;;;;;6.47;5.93;;;6.80;66.90;;;;;;5022624;28;20561;-80
2021/04/28 00:11:37;;;;;;;8.00;6.10;;;6.80;66.70;;;;;;5021350;28;20442;-81
2021/04/28 00:14:03;;;;;;;7.87;5.27;;;6.70;66.90;;;;;;5020121;28;20191;-79
2021/04/28 00:16:29;;;;;;;6.17;5.23;;;6.70;66.90;;;;;;5032792;28;20601;-79
2021/04/28 00:18:55;;;;;;;7.40;4.80;;;6.70;67.00;;;;;;5015407;28;20532;-78
2021/04/28 00:21:20;;;;;;;6.33;5.83;;;6.70;67.90;;;;;;5015461;28;20235;-79
2021/04/28 00:23:46;;;;;;;6.60;5.00;;;6.60;67.20;;;;;;5016380;28;20294;-79
2021/04/28 00:26:15;;;;;;;5.67;5.00;;;6.60;67.00;;;;;;5016518;28;20164;-79
2021/04/28 00:28:41;;;;;;;7.00;4.80;;;6.60;67.30;;;;;;5017031;28;20261;-80
2021/04/28 00:31:07;;;;;;;6.03;5.00;;;6.60;67.10;;;;;;5035306;28;20399;-80
2021/04/28 00:33:32;;;;;;;6.17;5.30;;;6.60;67.00;;;;;;5017742;28;20179;-80
2021/04/28 00:35:58;;;;;;;5.90;4.80;;;6.60;67.00;;;;;;5017775;28;20186;-79
2021/04/28 00:38:24;;;;;;;5.70;4.47;;;6.60;67.00;;;;;;5017769;28;20544;-80
2021/04/28 00:40:51;;;;;;;10.63;5.10;;;6.60;67.10;;;;;;5014774;28;20586;-80
2021/04/28 00:43:17;;;;;;;5.63;5.10;;;6.50;67.10;;;;;;5014663;28;20879;-79
2021/04/28 00:45:43;;;;;;;7.43;5.70;;;6.60;67.00;;;;;;5015148;28;20410;-79
2021/04/28 00:48:11;;;;;;;7.57;5.37;;;6.50;67.10;;;;;;4998846;28;20434;-79
2021/04/28 00:50:39;;;;;;;5.03;4.10;;;6.50;67.00;;;;;;5016290;28;20415;-79
2021/04/28 00:53:06;;;;;;;7.47;4.80;;;6.50;67.30;;;;;;5015421;28;20439;-79
2021/04/28 00:55:32;;;;;;;9.30;5.23;;;6.50;67.30;;;;;;5017109;28;20411;-81
2021/04/28 00:57:59;;;;;;;6.97;5.33;;;6.50;67.10;;;;;;5020598;28;20446;-80
2021/04/28 01:00:25;;;;;;;6.20;5.33;;;6.50;67.20;;;;;;5022403;28;20604;-80
2021/04/28 01:02:51;;;;;;;8.90;5.60;;;6.50;67.10;;;;;;5042021;28;20551;-79
2021/04/28 01:05:17;;;;;;;8.30;5.50;;;6.40;67.20;;;;;;5024552;28;20470;-78
2021/04/28 01:07:48;;;;;;;6.20;4.90;;;6.40;67.10;;;;;;5025061;28;20407;-78
2021/04/28 01:10:17;;;;;;;6.37;5.77;;;6.40;67.50;;;;;;5023655;28;20453;-79
2021/04/28 01:12:43;;;;;;;6.63;5.30;;;6.30;67.50;;;;;;5024663;28;20435;-79
2021/04/28 01:15:12;;;;;;;10.73;5.20;;;6.30;67.70;;;;;;5024681;28;20778;-79
2021/04/28 01:17:39;;;;;;;5.43;4.77;;;6.30;68.10;;;;;;5024257;28;20477;-79
2021/04/28 01:20:07;;;;;;;7.60;5.40;;;6.30;68.10;;;;;;5027182;28;20426;-80
2021/04/28 01:22:40;;;;;;;7.03;5.33;;;6.20;68.10;;;;;;5029533;28;20446;-79
2021/04/28 01:25:09;;;;;;;4.97;4.47;;;6.20;68.20;;;;;;5029292;28;20545;-80
2021/04/28 01:27:37;;;;;;;7.63;4.80;;;6.10;68.70;;;;;;5024418;28;20410;-80
2021/04/28 01:30:05;;;;;;;15.80;5.13;;;6.10;68.70;;;;;;5024420;28;20406;-79
2021/04/28 01:32:32;;;;;;;6.07;5.47;;;6.10;68.90;;;;;;5041796;28;20418;-79
2021/04/28 01:34:58;;;;;;;7.13;6.03;;;6.10;69.10;;;;;;5024575;28;20758;-79
2021/04/28 01:37:26;;;;;;;8.17;5.90;;;6.10;69.10;;;;;;5024187;28;20557;-79
2021/04/28 01:39:52;;;;;;;5.90;5.33;;;6.00;69.30;;;;;;5022456;28;20487;-78
2021/04/28 01:42:21;;;;;;;7.53;6.03;;;6.00;69.20;;;;;;5023988;28;20947;-80
2021/04/28 01:44:48;;;;;;;7.17;6.07;;;6.00;69.30;;;;;;5024620;28;20780;-80
2021/04/28 01:47:17;;;;;;;6.97;6.17;;;6.00;69.60;;;;;;5023563;28;20410;-79
2021/04/28 01:49:44;;;;;;;5.57;4.30;;;6.00;69.70;;;;;;5022594;28;20468;-81
2021/04/28 01:52:10;;;;;;;7.40;5.70;;;5.90;69.80;;;;;;5021961;28;20488;-79
2021/04/28 01:54:36;;;;;;;6.37;4.87;;;5.90;69.90;;;;;;5020830;28;20409;-79
2021/04/28 01:57:02;;;;;;;6.23;4.73;;;5.90;70.00;;;;;;5019866;28;20564;-80
2021/04/28 01:59:29;;;;;;;7.93;5.40;;;5.90;70.20;;;;;;5019974;28;21085;-80
2021/04/28 02:01:57;;;;;;;8.67;6.20;;;5.80;70.30;;;;;;5020049;28;20434;-79
2021/04/28 02:04:23;;;;;;;8.33;5.27;;;5.80;70.60;;;;;;5019538;28;20454;-79
2021/04/28 02:06:49;;;;;;;7.17;5.60;;;5.80;70.60;;;;;;5019254;28;20417;-79
2021/04/28 02:09:16;;;;;;;7.33;5.97;;;5.80;70.90;;;;;;5021396;28;20429;-80
2021/04/28 02:11:42;;;;;;;7.87;5.73;;;5.70;71.10;;;;;;5022076;28;20422;-80
2021/04/28 02:14:11;;;;;;;8.03;6.17;;;5.70;71.20;;;;;;5021754;28;20506;-79
2021/04/28 02:16:39;;;;;;;7.50;5.37;;;5.70;71.30;;;;;;5020966;28;20183;-79
2021/04/28 02:19:08;;;;;;;9.00;5.70;;;5.60;71.40;;;;;;5020283;28;20505;-79
2021/04/28 02:21:41;;;;;;;8.33;5.73;;;5.60;71.70;;;;;;5020836;28;20441;-80
2021/04/28 02:24:11;;;;;;;7.10;5.50;;;5.60;72.90;;;;;;5038990;28;20458;-79
2021/04/28 02:26:37;;;;;;;8.97;6.47;;;5.50;72.00;;;;;;5019230;28;20509;-79
2021/04/28 02:29:03;;;;;;;11.33;5.80;;;5.50;72.50;;;;;;5022123;28;20505;-80
2021/04/28 02:31:28;;;;;;;7.30;5.30;;;5.50;72.80;;;;;;5022341;28;20200;-80
2021/04/28 02:33:54;;;;;;;6.43;5.50;;;5.40;73.00;;;;;;5020463;28;20414;-79
2021/04/28 02:36:21;;;;;;;6.60;5.50;;;5.40;73.50;;;;;;5038448;28;20241;-80
2021/04/28 02:38:52;;;;;;;6.60;5.97;;;5.40;73.70;;;;;;5016431;28;20186;-80
2021/04/28 02:41:18;;;;;;;9.20;5.53;;;5.30;74.00;;;;;;5015120;28;20451;-78
2021/04/28 02:43:45;;;;;;;11.13;6.00;;;5.30;74.10;;;;;;5015200;28;20451;-79
2021/04/28 02:46:14;;;;;;;6.50;5.70;;;5.30;74.40;;;;;;5016307;28;20407;-79
2021/04/28 02:48:43;;;;;;;7.13;6.47;;;5.20;74.60;;;;;;5016031;28;20455;-79
2021/04/28 02:51:09;;;;;;;14.63;6.60;;;5.20;74.80;;;;;;5015132;28;20542;-78
2021/04/28 02:53:36;;;;;;;7.10;5.30;;;5.20;75.00;;;;;;4998675;28;20423;-78
2021/04/28 02:56:02;;;;;;;8.30;5.80;;;5.20;75.20;;;;;;5014436;28;20419;-78
2021/04/28 02:58:28;;;;;;;8.87;5.47;;;5.20;75.40;;;;;;5015887;28;20489;-80
2021/04/28 03:00:57;;;;;;;6.60;5.63;;;5.20;75.60;;;;;;5015630;28;20407;-78
2021/04/28 03:03:23;;;;;;;10.10;6.80;;;5.10;75.70;;;;;;5023202;28;20886;-79
2021/04/28 03:05:50;;;;;;;10.40;6.50;;;5.10;76.00;;;;;;5022047;28;20438;-80
2021/04/28 03:08:17;;;;;;;8.80;7.10;;;5.10;76.20;;;;;;5037156;28;20402;-80
2021/04/28 03:10:43;;;;;;;7.10;6.40;;;5.00;76.50;;;;;;5019116;28;20450;-79
2021/04/28 03:13:09;;;;;;;10.20;6.20;;;5.00;76.70;;;;;;5022317;28;20434;-79
2021/04/28 03:15:35;;;;;;;11.70;6.67;;;5.00;76.80;;;;;;5024591;28;20421;-79
2021/04/28 03:18:01;;;;;;;8.13;6.53;;;5.00;76.90;;;;;;5021592;28;20631;-80
2021/04/28 03:20:27;;;;;;;7.50;6.73;;;5.00;77.20;;;;;;5038965;28;20174;-80
2021/04/28 03:22:53;;;;;;;11.33;6.23;;;4.90;77.40;;;;;;5018999;28;20446;-79
2021/04/28 03:25:20;;;;;;;8.83;6.73;;;4.90;78.00;;;;;;5020457;28;20407;-79
2021/04/28 03:27:46;;;;;;;8.23;6.10;;;4.90;78.20;;;;;;5020209;28;20406;-79
2021/04/28 03:30:12;;;;;;;11.30;7.30;;;4.80;78.40;;;;;;5020690;28;20440;-79
2021/04/28 03:32:38;;;;;;;8.33;6.70;;;4.80;78.80;;;;;;5020339;28;20198;-79
2021/04/28 03:35:04;;;;;;;9.90;6.17;;;4.80;79.10;;;;;;5020499;28;20456;-79
2021/04/28 03:37:30;;;;;;;10.83;6.73;;;4.80;79.40;;;;;;5020173;28;20820;-78
2021/04/28 03:39:56;;;;;;;9.37;6.23;;;4.70;79.90;;;;;;5020754;28;20450;-79
2021/04/28 03:42:23;;;;;;;8.90;7.40;;;4.70;80.20;;;;;;5020598;28;20188;-79
2021/04/28 03:44:51;;;;;;;8.63;6.10;;;4.70;80.50;;;;;;5020979;28;20217;-79
2021/04/28 03:47:18;;;;;;;8.07;6.60;;;4.70;80.90;;;;;;5020899;28;20463;-80
2021/04/28 03:49:44;;;;;;;10.97;7.23;;;4.60;81.10;;;;;;5021701;28;20410;-79
2021/04/28 03:52:10;;;;;;;7.80;5.80;;;4.70;81.40;;;;;;5038924;28;20426;-79
2021/04/28 03:54:36;;;;;;;9.80;7.03;;;4.70;81.50;;;;;;5022154;28;20225;-79
2021/04/28 03:57:04;;;;;;;10.60;6.30;;;4.70;81.70;;;;;;5022042;28;20426;-78
2021/04/28 03:59:29;;;;;;;10.60;7.97;;;4.60;81.90;;;;;;5020819;28;20945;-79
2021/04/28 04:01:55;;;;;;;8.43;6.50;;;4.70;82.10;;;;;;5020690;28;20426;-78
2021/04/28 04:04:20;;;;;;;9.47;7.07;;;4.70;82.60;;;;;;5020682;28;20230;-79
2021/04/28 04:06:46;;;;;;;10.47;6.43;;;4.60;82.70;;;;;;5023069;28;20178;-78
2021/04/28 04:09:12;;;;;;;10.23;6.40;;;4.60;82.80;;;;;;5020559;28;20671;-78
2021/04/28 04:11:37;;;;;;;10.83;6.90;;;4.60;83.20;;;;;;5021235;28;20230;-79
2021/04/28 04:14:03;;;;;;;9.20;7.87;;;4.60;83.50;;;;;;5038569;28;20168;-79
2021/04/28 04:16:29;;;;;;;8.13;7.27;;;4.60;83.60;;;;;;5016996;28;20184;-78
2021/04/28 04:18:55;;;;;;;11.83;6.70;;;4.60;83.80;;;;;;5037289;28;20239;-79
2021/04/28 04:21:21;;;;;;;10.00;6.97;;;4.60;84.20;;;;;;5056616;28;20190;-78
2021/04/28 04:23:46;;;;;;;13.07;6.80;;;4.70;84.30;;;;;;5050661;28;20190;-79
2021/04/28 04:26:13;;;;;;;10.10;6.97;;;4.70;84.50;;;;;;5020351;28;20749;-79
2021/04/28 04:28:38;;;;;;;13.47;8.00;;;4.70;84.70;;;;;;5020118;28;20525;-79
2021/04/28 04:31:04;;;;;;;9.67;7.20;;;4.70;84.80;;;;;;5024106;28;20402;-80
2021/04/28 04:33:29;;;;;;;9.53;8.23;;;4.80;84.60;;;;;;5045048;28;20171;-80
2021/04/28 04:35:55;;;;;;;9.90;7.53;;;4.80;84.70;;;;;;5025062;28;20179;-80
2021/04/28 04:38:20;;;;;;;10.70;7.47;;;4.80;84.90;;;;;;5023239;28;20191;-78
2021/04/28 04:40:46;;;;;;;12.63;7.40;;;4.80;85.10;;;;;;5041374;28;20543;-79
2021/04/28 04:43:12;;;;;;;10.57;7.17;;;4.80;85.00;;;;;;5024777;28;20265;-79
2021/04/28 04:45:38;;;;;;;12.80;7.60;;;4.90;85.10;;;;;;5025184;28;20598;-79
2021/04/28 04:48:06;;;;;;;11.40;8.10;;;4.90;85.00;;;;;;5024666;28;20171;-78
2021/04/28 04:50:32;;;;;;;10.00;7.57;;;5.00;84.90;;;;;;5025275;28;20414;-79
2021/04/28 04:52:58;;;;;;;13.53;8.40;;;5.00;84.90;;;;;;5026208;28;20817;-79
2021/04/28 04:55:24;;;;;;;14.00;8.33;;;5.00;84.30;;;;;;5026287;28;20418;-79
2021/04/28 04:57:50;;;;;;;14.87;8.20;;;5.10;84.80;;;;;;5020688;28;20175;-79
2021/04/28 05:00:17;;;;;;;11.33;7.73;;;5.20;84.50;;;;;;5019153;28;20217;-79
2021/04/28 05:02:43;;;;;;;15.07;8.37;;;5.20;84.40;;;;;;5020924;28;20437;-79
2021/04/28 05:05:10;;;;;;;15.13;7.87;;;5.30;84.40;;;;;;5027051;28;20418;-79
2021/04/28 05:07:36;;;;;;;11.07;8.10;;;5.30;84.20;;;;;;5021817;28;20253;-79
2021/04/28 05:10:03;;;;;;;11.87;7.70;;;5.40;84.10;;;;;;5021096;28;20410;-80
2021/04/28 05:12:29;;;;;;;12.90;7.80;;;5.50;83.80;;;;;;5022357;28;20205;-78
2021/04/28 05:14:58;;;;;;;10.90;8.10;;;5.50;83.60;;;;;;5017662;28;20426;-80
2021/04/28 05:17:23;;;;;;;11.17;8.60;;;5.60;82.70;;;;;;5022933;28;20194;-79
2021/04/28 05:19:49;;;;;;;14.27;9.33;;;5.70;82.50;;;;;;5041694;28;20414;-79
2021/04/28 05:22:15;;;;;;;11.87;8.60;;;5.90;82.10;;;;;;5022266;28;20191;-80
2021/04/28 05:24:40;;;;;;;14.57;8.10;;;6.20;81.50;;;;;;5023677;28;20195;-79
2021/04/28 05:27:06;;;;;;;13.13;9.23;;;6.50;79.90;;;;;;5024114;28;20251;-80
2021/04/28 05:29:32;;;;;;;15.77;9.53;;;6.90;78.90;;;;;;5024027;28;20164;-80
2021/04/28 05:31:57;;;;;;;14.40;8.27;;;7.20;77.90;;;;;;5008165;28;20449;-80
2021/04/28 05:34:24;;;;;;;11.40;8.27;;;7.50;76.20;;;;;;5004522;28;20180;-80
2021/04/28 05:36:50;;;;;;;12.07;8.70;;;7.80;75.00;;;;;;5005039;28;20181;-80
2021/04/28 05:39:16;;;;;;;14.37;8.30;;;8.20;74.10;;;;;;5008080;28;20411;-80
2021/04/28 05:41:41;;;;;;;15.13;9.00;;;8.10;73.60;;;;;;5006994;28;20426;-81
2021/04/28 05:44:08;;;;;;;10.40;7.40;;;8.30;73.30;;;;;;5007595;28;20192;-81
2021/04/28 05:46:35;;;;;;;12.10;8.00;;;8.40;72.10;;;;;;5006517;28;20232;-81
2021/04/28 05:49:05;;;;;;;9.80;7.00;;;8.80;72.10;;;;;;5023656;28;20460;-80
2021/04/28 05:51:31;;;;;;;12.87;8.23;;;9.10;70.90;;;;;;5027800;28;20469;-81
2021/04/28 05:53:57;;;;;;;13.87;9.30;;;8.90;69.90;;;;;;5028714;28;20410;-82
2021/04/28 05:56:22;;;;;;;14.67;8.30;;;8.80;69.70;;;;;;5066468;28;20499;-82
2021/04/28 05:58:48;;;;;;;12.37;8.80;;;9.10;70.70;;;;;;5068371;28;20428;-80
2021/04/28 06:01:15;;;;;;;10.93;8.20;;;8.80;69.40;;;;;;5052063;28;20221;-81
2021/04/28 06:03:40;;;;;;;13.07;9.10;;;8.90;69.60;;;;;;5057513;28;20195;-82
2021/04/28 06:06:06;;;;;;;11.50;7.53;;;8.80;70.20;;;;;;5023967;28;20414;-83
2021/04/28 06:08:32;;;;;;;14.50;9.20;;;9.40;69.40;;;;;;5023977;28;20621;-82
2021/04/28 06:10:57;;;;;;;11.67;7.93;;;9.50;68.80;;;;;;5023971;28;20665;-80
2021/04/28 06:13:23;;;;;;;12.53;9.40;;;9.60;68.00;;;;;;5028720;28;20240;-79
2021/04/28 06:15:48;;;;;;;14.20;9.10;;;9.50;68.50;;;;;;5032384;28;20176;-80
2021/04/28 06:18:14;;;;;;;12.80;8.97;;;9.90;68.10;;;;;;5030247;28;20294;-81
2021/04/28 06:20:39;;;;;;;12.10;8.27;;;10.20;65.60;;;;;;5023858;28;20191;-79
2021/04/28 06:23:18;;;;;;;12.10;9.33;;;10.10;65.90;;;;;;5030890;28;20862;-86
2021/04/28 06:26:04;;;;;;;11.63;9.10;;;10.10;66.20;;;;;;5011082;28;20164;-85
2021/04/28 06:28:43;;;;;;;10.80;8.90;;;10.70;65.30;;;;;;5010322;28;20434;-85
2021/04/28 06:31:09;;;;;;;12.23;8.37;;;11.60;63.70;;;;;;5025961;28;20515;-79
2021/04/28 06:33:35;;;;;;;15.23;9.10;;;11.70;61.30;;;;;;5011891;28;20471;-80
2021/04/28 06:36:01;;;;;;;12.10;9.80;;;12.20;60.90;;;;;;5016720;28;20502;-81
2021/04/28 06:38:27;;;;;;;11.73;8.57;;;12.30;59.80;;;;;;5017093;28;20458;-80
2021/04/28 06:40:52;;;;;;;20.80;14.93;;;12.50;59.90;;;;;;5016143;28;20407;-79
2021/04/28 06:43:18;;;;;;;16.80;12.40;;;13.30;62.80;;;;;;5011010;28;20187;-78
2021/04/28 06:45:44;;;;;;;17.80;13.40;;;13.20;61.10;;;;;;5010838;28;20276;-79
2021/04/28 06:48:10;;;;;;;17.57;13.70;;;12.90;59.60;;;;;;5010174;28;20179;-80
2021/04/28 06:50:35;;;;;;;10.87;9.67;;;13.10;60.70;;;;;;5007527;28;20180;-79
2021/04/28 06:53:01;;;;;;;18.13;10.77;;;13.10;59.40;;;;;;5005343;28;20542;-80
2021/04/28 06:55:27;;;;;;;18.60;10.80;;;13.80;58.90;;;;;;5032146;28;20178;-79
2021/04/28 06:57:56;;;;;;;22.80;14.23;;;13.70;57.70;;;;;;5047552;28;20653;-79
2021/04/28 07:00:26;;;;;;;28.30;21.00;;;14.20;57.60;;;;;;5043000;28;20189;-79
2021/04/28 07:02:52;;;;;;;17.90;11.93;;;14.10;58.30;;;;;;5026411;28;20439;-78
2021/04/28 07:05:18;;;;;;;15.67;10.63;;;14.30;57.60;;;;;;5027531;28;20423;-79
2021/04/28 07:07:44;;;;;;;13.07;8.73;;;14.40;56.60;;;;;;5025580;28;20424;-79
2021/04/28 07:10:10;;;;;;;15.63;10.63;;;13.20;56.30;;;;;;5025887;28;20242;-79
2021/04/28 07:12:36;;;;;;;16.10;11.67;;;14.00;56.90;;;;;;5027435;28;20194;-79
2021/04/28 07:15:02;;;;;;;13.20;10.93;;;14.00;56.70;;;;;;5027735;28;20424;-78
2021/04/28 07:17:27;;;;;;;13.43;10.60;;;14.80;55.60;;;;;;5027835;28;20654;-80
2021/04/28 07:19:53;;;;;;;14.03;10.77;;;14.50;55.90;;;;;;5024052;28;20504;-81
2021/04/28 07:22:19;;;;;;;14.10;11.33;;;14.80;56.00;;;;;;5025851;28;20190;-79
2021/04/28 07:24:45;;;;;;;14.30;9.80;;;15.00;55.40;;;;;;5019874;28;20186;-78
2021/04/28 07:27:10;;;;;;;13.13;10.30;;;13.80;55.00;;;;;;5032663;28;20424;-80
2021/04/28 07:29:36;;;;;;;10.60;8.03;;;14.30;54.90;;;;;;5035995;28;20182;-82
2021/04/28 07:32:03;;;;;;;12.43;9.20;;;14.70;54.20;;;;;;5035725;28;20204;-80
2021/04/28 07:34:29;;;;;;;11.07;8.20;;;15.40;53.00;;;;;;5034083;28;20297;-79
2021/04/28 07:36:55;;;;;;;11.73;10.60;;;15.20;52.40;;;;;;5035431;28;20440;-81
2021/04/28 07:39:21;;;;;;;12.00;9.23;;;14.60;53.20;;;;;;5053600;28;20402;-80
2021/04/28 07:41:46;;;;;;;11.40;9.30;;;14.90;53.20;;;;;;5035998;28;20216;-81
2021/04/28 07:44:14;;;;;;;13.40;9.77;;;15.40;53.10;;;;;;5033308;28;20219;-79
2021/04/28 07:46:40;;;;;;;12.27;9.80;;;15.90;51.30;;;;;;5033547;28;20419;-80
2021/04/28 07:49:06;;;;;;;10.30;8.33;;;14.70;52.40;;;;;;5035542;28;20429;-81
2021/04/28 07:51:32;;;;;;;13.40;11.03;;;14.80;53.50;;;;;;5035900;28;20446;-80
2021/04/28 07:53:58;;;;;;;14.93;10.17;;;14.90;53.00;;;;;;5036446;28;20455;-81
2021/04/28 07:56:23;;;;;;;13.33;9.43;;;15.40;52.60;;;;;;5042082;28;20426;-81
2021/04/28 07:58:49;;;;;;;12.53;8.97;;;15.40;51.90;;;;;;5051288;28;20177;-82
2021/04/28 08:01:15;;;;;;;10.80;8.93;;;15.30;51.90;;;;;;5032463;28;20187;-82
2021/04/28 08:03:40;;;;;;;10.23;9.20;;;15.60;51.00;;;;;;5030867;28;20908;-82
2021/04/28 08:06:07;;;;;;;12.50;9.50;;;15.80;50.50;;;;;;5029799;28;20176;-81
2021/04/28 08:08:32;;;;;;;14.10;9.90;;;15.70;51.10;;;;;;5030958;28;20177;-82
2021/04/28 08:10:58;;;;;;;11.20;9.63;;;16.20;51.20;;;;;;5030181;28;20679;-82
2021/04/28 08:13:23;;;;;;;12.00;9.80;;;15.90;50.50;;;;;;5030955;28;20223;-82
2021/04/28 08:15:49;;;;;;;12.87;9.40;;;16.70;50.80;;;;;;5029841;28;20246;-82
2021/04/28 08:18:15;;;;;;;18.40;10.57;;;17.40;49.90;;;;;;5033382;28;20422;-82
2021/04/28 08:20:41;;;;;;;14.10;9.73;;;16.30;50.30;;;;;;5033735;28;20235;-81
2021/04/28 08:23:07;;;;;;;12.30;10.40;;;16.60;51.40;;;;;;5031887;28;20201;-81
2021/04/28 08:25:32;;;;;;;14.30;11.10;;;17.50;50.00;;;;;;5033222;28;20179;-83
2021/04/28 08:27:59;;;;;;;16.23;9.67;;;17.00;49.50;;;;;;5033185;28;20204;-82
2021/04/28 08:30:25;;;;;;;10.63;9.20;;;17.90;49.10;;;;;;5032710;28;20206;-83
2021/04/28 08:32:50;;;;;;;24.73;19.00;;;17.80;48.90;;;;;;5031738;28;20438;-82
2021/04/28 08:35:16;;;;;;;12.57;9.97;;;17.00;49.50;;;;;;5020868;28;20177;-83
2021/04/28 08:37:47;;;;;;;16.77;10.20;;;16.90;50.30;;;;;;5019017;28;20204;-82
2021/04/28 08:40:17;;;;;;;14.03;10.83;;;16.60;50.20;;;;;;5024113;28;20164;-83
2021/04/28 08:42:43;;;;;;;15.03;10.80;;;17.00;50.90;;;;;;5026296;28;20430;-82
2021/04/28 08:45:10;;;;;;;14.07;10.17;;;17.00;51.50;;;;;;5023256;28;20417;-83
2021/04/28 08:47:37;;;;;;;15.00;10.40;;;17.50;49.50;;;;;;5020764;28;20181;-83
2021/04/28 08:50:05;;;;;;;10.83;9.57;;;17.20;50.30;;;;;;5020725;28;20416;-83
2021/04/28 08:52:34;;;;;;;13.13;11.87;;;16.90;50.10;;;;;;5020226;28;20441;-83
2021/04/28 08:55:00;;;;;;;16.93;11.37;;;17.50;50.30;;;;;;5029675;28;20438;-83
2021/04/28 08:57:25;;;;;;;10.67;9.37;;;17.50;49.60;;;;;;5040399;28;20414;-84
2021/04/28 08:59:53;;;;;;;12.37;8.80;;;17.00;49.70;;;;;;5056235;28;20239;-82
2021/04/28 09:02:26;;;;;;;15.10;10.43;;;17.10;49.80;;;;;;5054797;28;20197;-81
2021/04/28 09:05:22;;;;;;;10.57;9.23;;;18.00;49.00;;;;;;5021236;28;20454;-83
2021/04/28 09:07:48;;;;;;;16.87;11.27;;;17.50;49.20;;;;;;5014450;28;20408;-84
2021/04/28 09:10:16;;;;;;;13.00;10.63;;;17.00;49.60;;;;;;5026346;28;20444;-86
2021/04/28 09:13:04;;;;;;;16.73;9.63;;;16.80;49.50;;;;;;5024810;28;20424;-80
2021/04/28 09:15:32;;;;;;;13.90;10.60;;;17.50;49.10;;;;;;5023999;28;20546;-82
2021/04/28 09:17:58;;;;;;;11.13;9.57;;;18.00;48.40;;;;;;5050320;28;20422;-82
2021/04/28 09:20:31;;;;;;;19.23;12.10;;;17.40;48.70;;;;;;5050233;28;20417;-83
2021/04/28 09:23:14;;;;;;;12.37;10.60;;;18.20;47.60;;;;;;5030185;28;20205;-82
2021/04/28 09:25:46;;;;;;;9.80;8.90;;;17.10;47.50;;;;;;5035107;28;20438;-80
2021/04/28 09:28:33;;;;;;;11.13;9.80;;;17.50;48.50;;;;;;5037439;28;20422;-81
2021/04/28 09:31:05;;;;;;;11.43;10.17;;;17.50;47.90;;;;;;5035106;28;20418;-82
2021/04/28 09:33:32;;;;;;;18.30;10.70;;;18.30;47.60;;;;;;5038990;28;20455;-83
2021/04/28 09:35:58;;;;;;;14.47;11.73;;;18.00;46.90;;;;;;5036791;28;20413;-83
2021/04/28 09:38:24;;;;;;;13.37;9.73;;;17.60;48.20;;;;;;5037054;28;20418;-81
2021/04/28 09:40:52;;;;;;;13.60;9.70;;;17.30;48.90;;;;;;5026480;28;20923;-82
2021/04/28 09:43:22;;;;;;;10.73;9.57;;;16.70;50.60;;;;;;5024648;28;20243;-86
2021/04/28 09:46:01;;;;;;;12.70;11.40;;;17.50;49.30;;;;;;5031310;28;20522;-87
2021/04/28 09:48:27;;;;;;;11.10;9.93;;;17.40;49.60;;;;;;5030480;28;20415;-87
2021/04/28 09:51:13;;;;;;;14.50;9.80;;;17.70;49.40;;;;;;5028345;28;20430;-87
2021/04/28 09:53:44;;;;;;;14.83;11.00;;;18.10;49.00;;;;;;5025565;28;20539;-88
2021/04/28 09:56:19;;;;;;;14.30;11.17;;;18.20;49.00;;;;;;5020836;28;20407;-87
2021/04/28 10:05:25;;;;;;;13.03;11.67;;;16.90;50.30;;;;;;5033642;28;20444;-87
2021/04/28 10:08:12;;;;;;;12.57;10.77;;;16.90;50.50;;;;;;5022395;28;20418;-88
2021/04/28 10:11:00;;;;;;;14.07;11.57;;;16.40;51.10;;;;;;5032211;28;20421;-87
2021/04/28 10:13:31;;;;;;;14.27;11.80;;;16.30;51.10;;;;;;5030699;28;20453;-86
2021/04/28 10:16:08;;;;;;;13.10;11.10;;;16.30;51.30;;;;;;5027662;28;20441;-86
2021/04/28 10:18:57;;;;;;;12.17;10.97;;;16.30;51.10;;;;;;5028394;28;20498;-88
2021/04/28 10:21:26;;;;;;;12.87;10.40;;;15.90;50.70;;;;;;5020125;28;20520;-87
2021/04/28 10:23:55;;;;;;;14.17;11.63;;;16.10;51.50;;;;;;5029275;28;20414;-88
2021/04/28 10:26:34;;;;;;;17.63;11.17;;;16.00;51.50;;;;;;5030843;28;20434;-87
2021/04/28 10:29:03;;;;;;;12.20;10.90;;;15.60;51.30;;;;;;5031812;28;20438;-87
2021/04/28 10:31:32;;;;;;;14.90;10.80;;;15.90;51.50;;;;;;5034336;28;20452;-88
2021/04/28 10:34:04;;;;;;;22.00;10.53;;;16.10;51.90;;;;;;5029210;28;20447;-88
2021/04/28 10:36:31;;;;;;;16.57;10.83;;;15.90;51.40;;;;;;5032961;28;20375;-87
2021/04/28 10:39:00;;;;;;;13.33;9.50;;;15.90;51.60;;;;;;5032794;28;20405;-88
2021/04/28 10:41:44;;;;;;;14.83;10.00;;;15.70;50.70;;;;;;5012898;28;20512;-88
2021/04/28 10:44:47;;;;;;;18.73;11.33;;;16.00;51.70;;;;;;5008587;28;20407;-90
2021/04/28 10:47:44;;;;;;;14.77;10.17;;;16.20;51.00;;;;;;5009149;28;20426;-87
2021/04/28 10:50:22;;;;;;;12.70;8.70;;;16.40;51.10;;;;;;5008635;28;20411;-88
2021/04/28 10:53:11;;;;;;;;;;;;;;;;;;;;;
2021/04/28 10:56:07;;;;;;;13.63;8.80;;;16.30;50.50;;;;;;5044955;28;20490;-88
2021/04/28 10:58:34;;;;;;;14.10;9.60;;;16.00;50.80;;;;;;5026659;28;20816;-87
2021/04/28 11:01:05;;;;;;;13.37;9.57;;;16.50;51.00;;;;;;5025930;28;20409;-88
2021/04/28 11:03:40;;;;;;;11.43;10.23;;;16.30;51.10;;;;;;5044742;28;20539;-85
2021/04/28 11:06:21;;;;;;;12.80;9.20;;;16.50;50.90;;;;;;5029299;28;20768;-86
2021/04/28 11:09:11;;;;;;;15.20;10.00;;;16.80;51.10;;;;;;5029540;28;20415;-89
2021/04/28 11:11:46;;;;;;;14.37;10.00;;;16.80;50.20;;;;;;5022732;28;20431;-86
2021/04/28 11:14:17;;;;;;;11.90;8.37;;;16.60;50.30;;;;;;5030483;28;20552;-88
2021/04/28 11:16:45;;;;;;;11.90;9.50;;;16.20;50.70;;;;;;5029132;28;20818;-88
2021/04/28 11:19:23;;;;;;;12.80;9.80;;;16.30;50.90;;;;;;5028414;28;20426;-88
2021/04/28 11:22:10;;;;;;;16.70;9.60;;;16.70;50.90;;;;;;5027966;28;20525;-88
2021/04/28 11:24:59;;;;;;;12.20;10.17;;;16.70;49.80;;;;;;5028544;28;20442;-87
2021/04/28 11:27:46;;;;;;;10.60;8.37;;;16.80;50.20;;;;;;5033547;28;20399;-88
2021/04/28 11:30:21;;;;;;;11.50;7.67;;;16.80;49.80;;;;;;5044784;28;20445;-86
2021/04/28 11:33:23;;;;;;;9.33;7.80;;;16.50;50.10;;;;;;5025749;28;20713;-87
2021/04/28 11:35:52;;;;;;;12.60;8.53;;;16.70;50.20;;;;;;5025084;28;20773;-87
2021/04/28 11:38:22;;;;;;;16.57;8.20;;;16.80;49.80;;;;;;5023795;28;20486;-87
2021/04/28 11:40:56;;;;;;;11.83;8.90;;;17.10;49.80;;;;;;5023195;28;20470;-86
2021/04/28 11:43:37;;;;;;;13.90;8.67;;;17.20;50.00;;;;;;5026059;28;20400;-88
2021/04/28 11:46:16;;;;;;;11.17;9.00;;;16.90;50.60;;;;;;5025478;28;20414;-88
2021/04/28 11:48:53;;;;;;;12.50;9.10;;;17.00;51.00;;;;;;5024075;28;20398;-86
2021/04/28 11:51:32;;;;;;;12.77;8.80;;;17.20;51.40;;;;;;5023254;28;20425;-87
2021/04/28 11:54:14;;;;;;;10.90;8.77;;;17.20;50.80;;;;;;5023266;28;20450;-86
2021/04/28 11:56:43;;;;;;;12.83;9.40;;;17.30;50.70;;;;;;5023575;28;20427;-88
2021/04/28 11:59:28;;;;;;;11.43;8.87;;;17.30;51.00;;;;;;5023606;28;20517;-88
2021/04/28 12:02:02;;;;;;;8.30;7.17;;;17.10;50.50;;;;;;5023476;28;20431;-88
2021/04/28 12:04:32;;;;;;;10.33;8.93;;;17.20;49.80;;;;;;5026082;28;20410;-88
2021/04/28 12:06:59;;;;;;;9.50;8.20;;;17.10;49.70;;;;;;5022271;28;20916;-86
2021/04/28 12:09:47;;;;;;;12.53;8.67;;;16.80;50.70;;;;;;5024230;28;20420;-86
2021/04/28 12:12:24;;;;;;;11.63;9.10;;;17.10;50.40;;;;;;5042789;28;20418;-86
2021/04/28 12:15:12;;;;;;;12.90;9.67;;;17.20;50.30;;;;;;5023721;28;20457;-86
2021/04/28 12:17:40;;;;;;;12.70;8.83;;;17.30;50.30;;;;;;5021794;28;20517;-87
2021/04/28 12:20:09;;;;;;;10.77;9.67;;;17.20;50.20;;;;;;5023038;28;20952;-87
2021/04/28 12:22:40;;;;;;;10.43;8.50;;;17.30;50.20;;;;;;5018729;28;20446;-87
2021/04/28 12:25:10;;;;;;;8.83;7.47;;;17.50;50.00;;;;;;5020289;28;20417;-87
2021/04/28 12:27:42;;;;;;;10.73;6.60;;;17.40;50.20;;;;;;5023075;28;20478;-86
2021/04/28 12:30:19;;;;;;;9.40;8.40;;;17.60;50.60;;;;;;5020923;28;20416;-87
2021/04/28 12:32:56;;;;;;;9.27;7.10;;;17.80;49.60;;;;;;5022107;28;20808;-86
2021/04/28 12:35:29;;;;;;;9.80;7.70;;;17.70;49.60;;;;;;5024369;28;20487;-87
2021/04/28 12:38:05;;;;;;;9.13;7.80;;;17.60;49.70;;;;;;5022034;28;20408;-87
2021/04/28 12:41:00;;;;;;;9.77;8.03;;;17.80;49.70;;;;;;5024280;28;20432;-87
2021/04/28 12:43:34;;;;;;;7.83;7.00;;;17.90;50.10;;;;;;5024364;28;20423;-87
2021/04/28 12:46:22;;;;;;;8.67;6.50;;;18.10;50.10;;;;;;5025837;28;20410;-87
2021/04/28 12:48:55;;;;;;;8.60;6.53;;;18.60;49.10;;;;;;5023824;28;20421;-86
2021/04/28 12:51:50;;;;;;;;;;;;;;;;;;;;;
2021/04/28 12:55:18;;;;;;;;;;;;;;;;;;;;;
2021/04/28 13:01:56;;;;;;;;;;;;;;;;;;;;;
2021/04/28 13:04:36;;;;;;;12.00;7.00;;;17.80;49.80;;;;;;5032416;28;20483;-86
2021/04/28 13:07:30;;;;;;;8.50;6.60;;;17.90;49.90;;;;;;5025247;28;20514;-86
2021/04/28 13:11:01;;;;;;;;;;;;;;;;;;;;;
2021/04/28 13:13:43;;;;;;;13.77;6.77;;;17.80;50.30;;;;;;5043888;28;20532;-86